createdAt,value
2018-06-01T00:02:12.919Z,8.53
2018-06-01T00:07:15.397Z,8.30
2018-06-01T00:12:17.875Z,8.20
2018-06-01T00:17:20.368Z,9.73
2018-06-01T00:22:22.848Z,8.60
2018-06-01T00:27:25.333Z,8.20
2018-06-01T00:32:27.841Z,8.47
2018-06-01T00:37:30.325Z,8.53
2018-06-01T00:42:32.860Z,7.83
2018-06-01T00:47:35.297Z,8.60
2018-06-01T00:52:37.802Z,10.17
2018-06-01T00:57:40.292Z,10.23
2018-06-01T01:02:42.799Z,14.73
2018-06-01T01:07:45.288Z,9.40
2018-06-01T01:12:47.780Z,9.13
2018-06-01T01:17:50.301Z,12.80
2018-06-01T01:22:52.784Z,9.30
2018-06-01T01:27:55.264Z,8.67
2018-06-01T01:32:57.745Z,8.20
2018-06-01T01:38:00.253Z,8.73
2018-06-01T01:43:02.741Z,9.00
2018-06-01T01:48:05.224Z,9.00
2018-06-01T01:53:07.696Z,8.00
2018-06-01T01:58:10.181Z,8.93
2018-06-01T02:03:13.432Z,8.23
2018-06-01T02:08:15.943Z,8.70
2018-06-01T02:13:18.420Z,8.93
2018-06-01T02:18:20.900Z,8.87
2018-06-01T02:23:23.404Z,10.30
2018-06-01T02:28:25.892Z,8.57
2018-06-01T02:33:28.372Z,9.00
2018-06-01T02:38:30.852Z,9.33
2018-06-01T02:43:33.335Z,7.50
2018-06-01T02:48:36.605Z,8.13
2018-06-01T02:53:39.102Z,9.23
2018-06-01T02:58:41.579Z,9.00
2018-06-01T03:03:44.060Z,9.77
2018-06-01T03:08:46.553Z,10.30
2018-06-01T03:13:49.040Z,8.90
2018-06-01T03:18:51.524Z,11.13
2018-06-01T03:23:54.008Z,9.20
2018-06-01T03:28:56.488Z,9.80
2018-06-01T03:33:59.761Z,14.10
2018-06-01T03:39:02.244Z,10.30
2018-06-01T03:44:04.723Z,11.77
2018-06-01T03:49:07.216Z,10.33
2018-06-01T03:54:09.715Z,11.77
2018-06-01T03:59:12.196Z,10.70
2018-06-01T04:04:14.680Z,11.30
2018-06-01T04:09:17.166Z,11.97
2018-06-01T04:14:19.656Z,14.93
2018-06-01T04:19:22.148Z,11.40
2018-06-01T04:24:24.645Z,10.97
2018-06-01T04:29:27.990Z,12.77
2018-06-01T04:34:30.476Z,11.53
2018-06-01T04:39:32.964Z,10.20
2018-06-01T04:44:35.456Z,13.57
2018-06-01T04:49:37.952Z,16.17
2018-06-01T04:54:40.443Z,12.50
2018-06-01T04:59:42.960Z,13.60
2018-06-01T05:04:45.453Z,20.53
2018-06-01T05:09:47.958Z,18.80
2018-06-01T05:14:50.475Z,13.87
2018-06-01T05:19:53.740Z,17.17
2018-06-01T05:24:56.253Z,16.33
2018-06-01T05:29:58.744Z,16.83
2018-06-01T05:35:01.264Z,16.87
2018-06-01T05:40:04.525Z,17.10
2018-06-01T05:45:07.017Z,21.17
2018-06-01T05:50:10.319Z,16.30
2018-06-01T05:55:12.807Z,15.20
2018-06-01T06:00:15.327Z,18.40
2018-06-01T06:05:17.824Z,15.70
2018-06-01T06:10:20.321Z,16.50
2018-06-01T06:15:22.812Z,17.27
2018-06-01T06:20:25.711Z,17.57
2018-06-01T06:25:28.235Z,16.17
2018-06-01T06:30:30.709Z,16.23
2018-06-01T06:35:33.217Z,14.83
2018-06-01T06:40:35.709Z,14.70
2018-06-01T06:45:38.218Z,15.73
2018-06-01T06:50:41.490Z,17.57
2018-06-01T06:55:44.000Z,22.73
2018-06-01T07:00:46.498Z,24.03
2018-06-01T07:05:48.979Z,34.63
2018-06-01T07:10:51.468Z,27.40
2018-06-01T07:15:53.958Z,22.07
2018-06-01T07:20:56.453Z,18.53
2018-06-01T07:25:58.968Z,26.50
2018-06-01T07:31:02.446Z,20.13
2018-06-01T07:36:04.928Z,15.90
2018-06-01T07:41:07.416Z,14.53
2018-06-01T07:46:09.916Z,14.80
2018-06-01T07:51:12.416Z,12.90
2018-06-01T07:56:14.928Z,11.57
2018-06-01T08:01:17.444Z,13.70
2018-06-01T08:06:19.928Z,12.40
2018-06-01T08:11:22.447Z,12.37
2018-06-01T08:16:24.932Z,12.60
2018-06-01T08:21:28.186Z,10.40
2018-06-01T08:26:30.685Z,8.33
2018-06-01T08:31:33.175Z,11.37
2018-06-01T08:36:35.681Z,10.53
2018-06-01T08:41:38.178Z,10.63
2018-06-01T08:46:40.680Z,7.13
2018-06-01T08:51:43.163Z,7.33
2018-06-01T08:56:45.643Z,6.87
2018-06-01T09:01:48.136Z,7.37
2018-06-01T09:06:50.637Z,6.97
2018-06-01T09:11:53.182Z,6.73
2018-06-01T09:16:55.758Z,10.37
2018-06-01T09:21:59.026Z,12.20
2018-06-01T09:27:01.508Z,7.97
2018-06-01T09:32:03.997Z,8.07
2018-06-01T09:37:06.493Z,6.50
2018-06-01T09:42:08.998Z,8.70
2018-06-01T09:47:11.548Z,8.33
2018-06-01T09:52:14.808Z,5.50
2018-06-01T09:57:17.292Z,5.33
2018-06-01T10:02:19.777Z,6.80
2018-06-01T10:07:22.265Z,5.77
2018-06-01T10:12:24.763Z,8.03
2018-06-01T10:17:27.972Z,6.00
2018-06-01T10:22:30.460Z,7.43
2018-06-01T10:27:33.467Z,11.47
2018-06-01T10:32:35.964Z,6.60
2018-06-01T10:37:38.455Z,8.90
2018-06-01T10:42:40.964Z,6.80
2018-06-01T10:47:43.452Z,7.00
2018-06-01T10:52:45.949Z,6.80
2018-06-01T10:57:48.430Z,6.77
2018-06-01T11:02:50.920Z,9.20
2018-06-01T11:07:54.311Z,6.47
2018-06-01T11:12:56.807Z,8.60
2018-06-01T11:17:59.316Z,12.17
2018-06-01T11:23:01.816Z,9.93
2018-06-01T11:28:04.310Z,13.40
2018-06-01T11:33:06.808Z,10.07
2018-06-01T11:38:09.309Z,10.27
2018-06-01T11:43:11.800Z,12.80
2018-06-01T11:48:14.305Z,10.70
2018-06-01T11:53:16.807Z,10.10
2018-06-01T11:58:19.319Z,15.17
2018-06-01T12:03:22.568Z,11.23
2018-06-01T12:08:25.068Z,17.00
2018-06-01T12:13:27.556Z,11.18
2018-06-01T12:18:30.040Z,24.37
2018-06-01T12:23:32.536Z,20.43
2018-06-01T12:28:35.027Z,30.43
2018-06-01T12:33:37.523Z,16.53
2018-06-01T12:38:40.031Z,16.40
2018-06-01T12:43:42.532Z,22.00
2018-06-01T12:48:45.035Z,19.67
2018-06-01T12:53:47.532Z,23.97
2018-06-01T12:58:50.043Z,29.60
2018-06-01T13:03:53.344Z,21.60
2018-06-01T13:08:58.372Z,19.03
2018-06-01T13:14:00.856Z,17.30
2018-06-01T13:19:03.364Z,9.73
2018-06-01T13:24:05.860Z,11.43
2018-06-01T13:29:08.349Z,13.13
2018-06-01T13:34:10.866Z,5.80
2018-06-01T13:39:13.387Z,5.97
2018-06-01T13:44:16.641Z,4.23
2018-06-01T13:49:19.140Z,9.37
2018-06-01T13:54:21.690Z,4.10
2018-06-01T13:59:25.020Z,4.07
2018-06-01T14:04:27.509Z,6.10
2018-06-01T14:09:29.988Z,3.90
2018-06-01T14:14:33.265Z,4.73
2018-06-01T14:19:37.116Z,4.47
2018-06-01T14:24:40.367Z,8.50
2018-06-01T14:29:42.865Z,7.23
2018-06-01T14:34:45.355Z,8.20
2018-06-01T14:39:47.878Z,7.00
2018-06-01T14:44:50.364Z,6.90
2018-06-01T14:49:52.847Z,9.03
2018-06-01T16:19:28.277Z,34.33
2018-06-01T16:24:30.787Z,30.40
2018-06-01T16:29:34.044Z,34.03
2018-06-01T16:34:37.292Z,33.63
2018-06-01T16:39:39.775Z,30.77
2018-06-01T16:44:42.983Z,41.10
2018-06-01T16:49:45.491Z,43.50
2018-06-01T16:54:47.996Z,40.57
2018-06-01T16:59:50.480Z,48.20
2018-06-01T17:04:52.972Z,55.87
2018-06-01T17:09:55.473Z,52.50
2018-06-01T17:14:57.971Z,45.57
2018-06-01T17:20:00.451Z,49.97
2018-06-01T17:25:02.950Z,43.97
2018-06-01T17:30:05.445Z,37.27
2018-06-01T17:35:07.936Z,40.00
2018-06-01T17:40:10.431Z,45.50
2018-06-01T17:45:12.925Z,41.30
2018-06-01T17:50:15.408Z,36.87
2018-06-01T17:55:17.929Z,36.23
2018-06-01T18:00:20.421Z,44.70
2018-06-01T18:05:22.913Z,41.53
2018-06-01T18:10:25.406Z,40.43
2018-06-01T18:15:28.035Z,37.17
2018-06-01T18:20:31.304Z,40.33
2018-06-01T18:25:33.828Z,41.47
2018-06-01T18:30:36.312Z,35.57
2018-06-01T18:35:38.813Z,41.10
2018-06-01T18:40:41.295Z,35.97
2018-06-01T18:45:43.784Z,39.30
2018-06-01T18:50:46.276Z,46.37
2018-06-01T18:55:48.780Z,38.97
2018-06-01T19:00:51.264Z,34.07
2018-06-01T19:05:53.751Z,35.00
2018-06-01T19:10:56.250Z,31.53
2018-06-01T19:15:58.761Z,28.80
2018-06-01T19:21:01.263Z,28.10
2018-06-01T19:26:04.537Z,24.33
2018-06-01T19:31:07.062Z,22.30
2018-06-01T19:36:09.559Z,23.20
2018-06-01T19:41:12.825Z,23.37
2018-06-01T19:46:15.328Z,21.70
2018-06-01T19:51:17.827Z,22.40
2018-06-01T19:56:20.326Z,23.87
2018-06-01T20:01:22.819Z,25.40
2018-06-01T20:06:25.319Z,26.97
2018-06-01T20:11:27.827Z,27.47
2018-06-01T20:16:30.328Z,33.50
2018-06-01T20:21:32.850Z,44.90
2018-06-01T20:26:35.372Z,47.90
2018-06-01T20:31:37.868Z,58.60
2018-06-01T20:36:40.369Z,65.60
2018-06-01T20:41:42.883Z,73.67
2018-06-01T20:46:45.376Z,71.83
2018-06-01T20:51:47.893Z,74.20
2018-06-01T20:56:51.168Z,79.80
2018-06-01T21:01:53.680Z,71.60
2018-06-01T21:06:56.191Z,77.57
2018-06-01T21:11:59.460Z,84.50
2018-06-01T21:17:01.956Z,79.13
2018-06-01T21:22:04.481Z,70.60
2018-06-01T21:27:06.971Z,74.30
2018-06-01T21:32:09.466Z,79.13
2018-06-01T21:37:11.991Z,73.47
2018-06-01T21:42:14.496Z,72.10
2018-06-01T21:47:16.992Z,73.30
2018-06-01T21:52:19.489Z,73.80
2018-06-01T21:57:22.216Z,84.40
2018-06-01T22:02:24.713Z,80.70
2018-06-01T22:07:27.227Z,80.50
2018-06-01T22:12:30.487Z,88.50
2018-06-01T22:17:32.996Z,87.50
2018-06-01T22:22:35.497Z,83.20
2018-06-01T22:27:38.000Z,86.80
2018-06-01T22:32:40.500Z,79.07
2018-06-01T22:37:43.005Z,78.60
2018-06-01T22:42:45.535Z,83.80
2018-06-01T22:47:48.028Z,85.73
2018-06-01T22:52:50.549Z,85.17
2018-06-01T22:57:53.041Z,85.33
2018-06-01T23:02:55.561Z,91.23
2018-06-01T23:07:58.075Z,85.43
2018-06-01T23:13:00.576Z,89.27
2018-06-01T23:18:03.856Z,88.63
2018-06-01T23:23:06.370Z,89.50
2018-06-01T23:28:08.865Z,91.10
2018-06-01T23:33:12.141Z,86.43
2018-06-01T23:38:14.648Z,94.17
2018-06-01T23:43:17.148Z,83.17
2018-06-01T23:48:19.655Z,85.47
2018-06-01T23:53:22.184Z,85.10
2018-06-01T23:58:24.688Z,83.47
